createdAt,value
2022-09-10T00:02:51.742Z,15.70
2022-09-10T00:05:56.048Z,15.70
2022-09-10T00:09:00.011Z,15.70
2022-09-10T00:12:04.679Z,15.80
2022-09-10T00:15:08.450Z,15.70
2022-09-10T00:18:11.429Z,15.70
2022-09-10T00:21:17.686Z,15.80
2022-09-10T00:24:22.491Z,15.80
2022-09-10T00:27:26.960Z,15.70
2022-09-10T00:30:29.900Z,15.80
2022-09-10T00:33:32.908Z,15.80
2022-09-10T00:36:39.649Z,15.70
2022-09-10T00:39:43.077Z,15.80
2022-09-10T00:42:47.353Z,15.80
2022-09-10T00:45:53.515Z,15.80
2022-09-10T00:48:59.166Z,15.80
2022-09-10T00:52:03.333Z,15.80
2022-09-10T00:55:07.639Z,15.90
2022-09-10T00:58:14.657Z,15.90
2022-09-10T01:01:19.163Z,15.90
2022-09-10T01:04:22.473Z,15.90
2022-09-10T01:07:26.843Z,15.90
2022-09-10T01:10:34.746Z,15.80
2022-09-10T01:13:52.916Z,15.80
2022-09-10T01:17:04.022Z,15.80
2022-09-10T01:20:41.885Z,15.80
2022-09-10T01:24:13.394Z,15.80
2022-09-10T01:27:41.201Z,15.70
2022-09-10T01:30:48.316Z,15.80
2022-09-10T01:33:58.850Z,15.80
2022-09-10T01:37:09.577Z,15.80
2022-09-10T01:40:13.694Z,15.80
2022-09-10T01:43:18.251Z,15.80
2022-09-10T01:46:34.827Z,15.80
2022-09-10T01:49:43.999Z,15.80
2022-09-10T01:53:00.103Z,15.80
2022-09-10T01:56:12.683Z,15.80
2022-09-10T01:59:29.081Z,15.80
2022-09-10T02:02:37.035Z,15.90
2022-09-10T02:05:42.660Z,15.90
2022-09-10T02:08:49.002Z,15.90
2022-09-10T02:11:56.125Z,15.90
2022-09-10T02:15:00.459Z,15.90
2022-09-10T02:18:03.433Z,15.80
2022-09-10T02:21:06.868Z,15.70
2022-09-10T02:24:12.371Z,15.80
2022-09-10T02:27:15.411Z,15.80
2022-09-10T02:30:20.208Z,15.70
2022-09-10T02:33:23.259Z,15.70
2022-09-10T02:36:26.845Z,15.70
2022-09-10T02:39:29.998Z,15.70
2022-09-10T02:42:34.034Z,15.70
2022-09-10T02:45:41.028Z,15.80
2022-09-10T02:48:43.992Z,15.80
2022-09-10T02:51:46.948Z,15.80
2022-09-10T02:54:50.249Z,15.70
2022-09-10T02:57:53.809Z,15.70
2022-09-10T03:01:07.352Z,15.60
2022-09-10T03:04:10.634Z,15.60
2022-09-10T03:07:17.010Z,15.60
2022-09-10T03:10:20.426Z,15.60
2022-09-10T03:13:23.396Z,15.60
2022-09-10T03:16:27.744Z,15.60
2022-09-10T03:19:31.285Z,15.70
2022-09-10T03:22:34.242Z,15.70
2022-09-10T03:25:37.200Z,15.70
2022-09-10T03:28:40.276Z,15.70
2022-09-10T03:31:46.363Z,15.70
2022-09-10T03:34:50.110Z,15.60
2022-09-10T03:37:53.060Z,15.70
2022-09-10T03:40:56.662Z,15.70
2022-09-10T03:43:59.626Z,15.70
2022-09-10T03:47:04.928Z,15.60
2022-09-10T03:50:08.343Z,15.70
2022-09-10T03:53:11.642Z,15.70
2022-09-10T03:56:15.349Z,15.70
2022-09-10T03:59:18.531Z,15.60
2022-09-10T04:02:22.878Z,15.70
2022-09-10T04:05:27.528Z,15.70
2022-09-10T04:08:30.669Z,15.70
2022-09-10T04:11:33.700Z,15.70
2022-09-10T04:14:37.217Z,15.70
2022-09-10T04:17:41.691Z,15.70
2022-09-10T04:20:47.547Z,15.70
2022-09-10T04:23:54.942Z,15.70
2022-09-10T04:26:59.035Z,15.60
2022-09-10T04:30:02.008Z,15.60
2022-09-10T04:33:06.393Z,15.50
2022-09-10T04:36:09.494Z,15.50
2022-09-10T04:39:14.359Z,15.50
2022-09-10T04:42:19.053Z,15.60
2022-09-10T04:45:22.058Z,15.50
2022-09-10T04:48:26.848Z,15.60
2022-09-10T04:51:29.834Z,15.50
2022-09-10T04:54:33.360Z,15.50
2022-09-10T04:57:36.590Z,15.60
2022-09-10T05:00:40.150Z,15.50
2022-09-10T05:03:44.442Z,15.50
2022-09-10T05:06:50.297Z,15.60
2022-09-10T05:09:53.277Z,15.60
2022-09-10T05:12:56.341Z,15.50
2022-09-10T05:15:59.698Z,15.50
2022-09-10T05:19:04.085Z,15.50
2022-09-10T05:22:07.032Z,15.50
2022-09-10T05:25:10.610Z,15.50
2022-09-10T05:28:13.587Z,15.50
2022-09-10T05:31:17.308Z,15.40
2022-09-10T05:34:21.623Z,15.40
2022-09-10T05:37:24.626Z,15.40
2022-09-10T05:40:29.118Z,15.50
2022-09-10T05:43:32.063Z,15.40
2022-09-10T05:46:35.022Z,15.40
2022-09-10T05:49:39.292Z,15.40
2022-09-10T05:52:42.286Z,15.50
2022-09-10T05:55:45.967Z,15.60
2022-09-10T05:58:49.577Z,15.60
2022-09-10T06:01:52.533Z,15.60
2022-09-10T06:04:56.821Z,15.60
2022-09-10T06:07:59.753Z,15.60
2022-09-10T06:11:05.031Z,15.60
2022-09-10T06:14:08.966Z,15.50
2022-09-10T06:17:12.254Z,15.60
2022-09-10T06:20:16.586Z,15.70
2022-09-10T06:23:19.566Z,15.80
2022-09-10T06:26:22.675Z,16.00
2022-09-10T06:29:25.625Z,16.10
2022-09-10T06:32:28.564Z,16.10
2022-09-10T06:35:33.213Z,16.20
2022-09-10T06:38:36.585Z,16.30
2022-09-10T06:41:39.579Z,16.30
2022-09-10T06:44:42.502Z,16.40
2022-09-10T06:48:32.789Z,16.40
2022-09-10T06:51:12.617Z,16.50
2022-09-10T06:54:15.598Z,16.60
2022-09-10T06:57:18.810Z,16.70
2022-09-10T07:00:22.133Z,16.80
2022-09-10T07:03:25.094Z,16.80
2022-09-10T07:06:34.733Z,16.90
2022-09-10T07:09:37.685Z,16.90
2022-09-10T07:12:40.638Z,16.90
2022-09-10T07:15:47.345Z,16.80
2022-09-10T07:18:50.898Z,16.90
2022-09-10T07:21:55.178Z,17.00
2022-09-10T07:24:58.346Z,17.10
2022-09-10T07:28:01.959Z,17.20
2022-09-10T07:31:13.181Z,17.10
2022-09-10T07:34:16.317Z,17.20
2022-09-10T07:37:20.596Z,17.20
2022-09-10T07:40:23.959Z,17.20
2022-09-10T07:43:27.026Z,17.20
2022-09-10T07:46:29.970Z,17.30
2022-09-10T07:49:32.888Z,17.30
2022-09-10T07:52:37.258Z,17.60
2022-09-10T07:55:40.308Z,17.70
2022-09-10T07:58:43.276Z,17.80
2022-09-10T08:01:47.634Z,17.90
2022-09-10T08:04:50.559Z,17.80
2022-09-10T08:07:55.154Z,17.90
2022-09-10T08:11:11.767Z,18.00
2022-09-10T08:14:15.121Z,18.10
2022-09-10T08:17:18.064Z,18.10
2022-09-10T08:20:21.233Z,18.10
2022-09-10T08:23:25.523Z,18.00
2022-09-10T08:26:29.311Z,18.10
2022-09-10T08:29:32.284Z,18.10
2022-09-10T08:32:35.927Z,18.20
2022-09-10T08:35:38.917Z,18.20
2022-09-10T08:38:44.432Z,18.10
2022-09-10T08:41:53.889Z,18.10
2022-09-10T08:45:04.246Z,18.20
2022-09-10T08:48:16.322Z,18.30
2022-09-10T08:51:27.469Z,18.30
2022-09-10T08:54:37.503Z,18.40
2022-09-10T08:57:45.210Z,18.40
2022-09-10T09:00:53.018Z,18.50
2022-09-10T09:03:58.230Z,18.50
2022-09-10T09:07:05.874Z,18.50
2022-09-10T09:10:21.303Z,18.60
2022-09-10T09:13:46.826Z,18.60
2022-09-10T09:17:17.017Z,18.70
2022-09-10T09:20:31.965Z,18.80
2022-09-10T09:24:02.728Z,18.80
2022-09-10T09:27:16.126Z,18.90
2022-09-10T09:30:23.005Z,18.90
2022-09-10T09:33:27.491Z,19.00
2022-09-10T09:36:38.262Z,19.10
2022-09-10T09:39:49.287Z,19.00
2022-09-10T09:42:57.317Z,19.00
2022-09-10T09:46:00.979Z,19.10
2022-09-10T09:49:04.391Z,19.10
2022-09-10T09:52:18.823Z,19.00
2022-09-10T09:55:31.036Z,19.10
2022-09-10T09:58:37.526Z,19.10
2022-09-10T10:01:43.279Z,19.20
2022-09-10T10:04:56.479Z,19.30
2022-09-10T10:08:00.005Z,19.20
2022-09-10T10:11:03.136Z,19.00
2022-09-10T10:14:21.666Z,19.20
2022-09-10T10:17:45.537Z,19.10
2022-09-10T10:20:49.659Z,18.90
2022-09-10T10:23:52.704Z,19.00
2022-09-10T10:26:55.904Z,19.00
2022-09-10T10:30:02.127Z,19.00
2022-09-10T10:33:05.410Z,18.90
2022-09-10T10:36:18.650Z,18.90
2022-09-10T10:39:26.645Z,19.00
2022-09-10T10:42:35.952Z,19.00
2022-09-10T10:45:50.504Z,19.10
2022-09-10T10:49:05.069Z,19.10
2022-09-10T10:52:19.241Z,19.10
2022-09-10T10:55:25.930Z,19.10
2022-09-10T10:58:54.134Z,19.10
2022-09-10T11:02:03.542Z,19.20
2022-09-10T11:05:20.598Z,19.30
2022-09-10T11:08:30.569Z,19.30
2022-09-10T11:11:40.512Z,19.40
2022-09-10T11:14:49.289Z,19.50
2022-09-10T11:17:59.002Z,19.60
2022-09-10T11:21:06.168Z,19.70
2022-09-10T11:24:17.363Z,19.80
2022-09-10T11:27:25.158Z,19.90
2022-09-10T11:30:28.764Z,20.00
2022-09-10T11:33:39.899Z,20.10
2022-09-10T11:36:48.070Z,20.30
2022-09-10T11:39:54.992Z,20.30
2022-09-10T11:43:03.649Z,20.40
2022-09-10T11:46:10.953Z,20.60
2022-09-10T11:49:20.594Z,20.80
2022-09-10T11:52:25.788Z,21.20
2022-09-10T11:55:41.638Z,21.70
2022-09-10T11:58:54.166Z,22.10
2022-09-10T12:02:50.124Z,22.20
2022-09-10T12:06:02.258Z,22.40
2022-09-10T12:09:14.205Z,22.60
2022-09-10T12:12:23.233Z,22.60
2022-09-10T12:15:28.016Z,22.90
2022-09-10T12:18:42.887Z,23.20
2022-09-10T12:21:52.670Z,23.60
2022-09-10T12:25:01.049Z,23.80
2022-09-10T12:28:08.039Z,23.40
2022-09-10T12:31:14.095Z,22.70
2022-09-10T12:34:20.441Z,22.20
2022-09-10T12:37:27.967Z,22.10
2022-09-10T12:40:51.900Z,22.10
2022-09-10T12:43:57.009Z,22.00
2022-09-10T12:47:33.717Z,21.70
2022-09-10T12:50:45.941Z,21.60
2022-09-10T12:54:12.449Z,21.50
2022-09-10T12:57:27.371Z,21.50
2022-09-10T13:00:41.971Z,21.40
2022-09-10T13:03:54.824Z,21.30
2022-09-10T13:07:01.431Z,21.40
2022-09-10T13:10:19.682Z,21.40
2022-09-10T13:13:37.389Z,21.40
2022-09-10T13:16:42.543Z,21.40
2022-09-10T13:19:51.877Z,21.20
2022-09-10T13:22:58.353Z,21.30
2022-09-10T13:26:38.255Z,21.40
2022-09-10T13:29:44.394Z,21.50
2022-09-10T13:32:52.133Z,21.50
2022-09-10T13:36:14.590Z,21.60
2022-09-10T13:39:34.696Z,21.70
2022-09-10T13:43:09.845Z,21.80
2022-09-10T13:46:21.809Z,21.80
2022-09-10T13:49:34.585Z,21.70
2022-09-10T13:52:38.545Z,21.70
2022-09-10T13:55:51.574Z,21.70
2022-09-10T13:59:00.774Z,21.70
2022-09-10T14:02:03.753Z,21.50
2022-09-10T14:05:23.492Z,21.50
2022-09-10T14:08:30.508Z,21.50
2022-09-10T14:11:36.451Z,21.60
2022-09-10T14:14:45.621Z,21.60
2022-09-10T14:17:52.068Z,21.60
2022-09-10T14:20:55.085Z,21.60
2022-09-10T14:24:00.227Z,21.60
2022-09-10T14:27:07.849Z,21.60
2022-09-10T14:30:26.898Z,21.60
2022-09-10T14:33:32.868Z,21.70
2022-09-10T14:36:35.833Z,21.70
2022-09-10T14:39:45.195Z,21.60
2022-09-10T14:42:49.409Z,21.60
2022-09-10T14:45:54.290Z,21.60
2022-09-10T14:49:09.473Z,21.60
2022-09-10T14:52:12.834Z,21.60
2022-09-10T14:55:16.803Z,21.50
2022-09-10T14:58:19.772Z,21.50
2022-09-10T15:01:24.282Z,21.40
2022-09-10T15:04:29.454Z,21.40
2022-09-10T15:07:32.356Z,21.60
2022-09-10T15:10:35.405Z,21.80
2022-09-10T15:13:41.389Z,22.00
2022-09-10T15:16:46.399Z,22.00
2022-09-10T15:19:49.886Z,21.90
2022-09-10T15:22:52.815Z,22.00
2022-09-10T15:25:58.045Z,22.00
2022-09-10T15:29:01.090Z,22.00
2022-09-10T15:32:05.692Z,21.90
2022-09-10T15:35:09.600Z,21.70
2022-09-10T15:38:13.906Z,21.70
2022-09-10T15:41:16.942Z,21.70
2022-09-10T15:44:19.897Z,21.70
2022-09-10T15:47:24.285Z,21.60
2022-09-10T15:50:27.555Z,21.60
2022-09-10T15:53:33.571Z,21.60
2022-09-10T15:56:36.663Z,21.60
2022-09-10T15:59:40.532Z,21.40
2022-09-10T16:02:47.064Z,21.40
2022-09-10T16:05:50.068Z,21.40
2022-09-10T16:08:57.601Z,21.30
2022-09-10T16:12:00.537Z,21.30
2022-09-10T16:15:03.516Z,21.30
2022-09-10T16:18:07.810Z,21.20
2022-09-10T16:21:12.667Z,21.10
2022-09-10T16:24:15.616Z,21.10
2022-09-10T16:27:18.715Z,21.00
2022-09-10T16:30:22.661Z,21.00
2022-09-10T16:33:26.933Z,21.00
2022-09-10T16:36:32.449Z,20.90
2022-09-10T16:39:35.699Z,20.90
2022-09-10T16:42:38.716Z,20.90
2022-09-10T16:45:50.425Z,20.90
2022-09-10T16:48:55.974Z,20.80
2022-09-10T16:51:59.046Z,20.60
2022-09-10T16:55:02.499Z,20.60
2022-09-10T16:58:05.839Z,20.50
2022-09-10T17:01:10.495Z,20.40
2022-09-10T17:04:20.506Z,20.30
2022-09-10T17:07:25.703Z,20.20
2022-09-10T17:10:28.671Z,20.20
2022-09-10T17:13:31.616Z,20.20
2022-09-10T17:16:37.479Z,20.20
2022-09-10T17:19:42.890Z,20.00
2022-09-10T17:22:46.459Z,20.00
2022-09-10T17:25:49.401Z,19.90
2022-09-10T17:28:56.967Z,19.80
2022-09-10T17:31:59.924Z,19.70
2022-09-10T17:35:04.409Z,19.70
2022-09-10T17:38:07.907Z,19.60
2022-09-10T17:41:14.393Z,19.60
2022-09-10T17:44:18.086Z,19.50
2022-09-10T17:47:21.066Z,19.50
2022-09-10T17:50:25.350Z,19.50
2022-09-10T17:53:28.658Z,19.50
2022-09-10T17:56:32.069Z,19.40
2022-09-10T17:59:35.178Z,19.40
2022-09-10T18:02:38.237Z,19.40
2022-09-10T18:05:43.441Z,19.40
2022-09-10T18:08:46.387Z,19.30
2022-09-10T18:11:49.373Z,19.20
2022-09-10T18:14:52.534Z,19.20
2022-09-10T18:17:55.755Z,19.20
2022-09-10T18:21:10.396Z,19.10
2022-09-10T18:24:15.149Z,19.10
2022-09-10T18:27:18.075Z,19.10
2022-09-10T18:30:21.247Z,19.00
2022-09-10T18:33:24.158Z,18.90
2022-09-10T18:36:30.278Z,18.90
2022-09-10T18:39:33.762Z,18.70
2022-09-10T18:42:37.135Z,18.80
2022-09-10T18:45:40.211Z,18.70
2022-09-10T18:48:43.986Z,18.70
2022-09-10T18:51:48.319Z,18.70
2022-09-10T18:54:51.521Z,18.60
2022-09-10T18:57:56.629Z,18.60
2022-09-10T19:01:04.989Z,18.50
2022-09-10T19:04:09.502Z,18.50
2022-09-10T19:07:13.779Z,18.40
2022-09-10T19:10:16.843Z,18.40
2022-09-10T19:13:19.792Z,18.30
2022-09-10T19:16:24.186Z,18.20
2022-09-10T19:19:29.361Z,18.20
2022-09-10T19:22:33.825Z,18.10
2022-09-10T19:25:36.766Z,18.10
2022-09-10T19:28:40.605Z,18.00
2022-09-10T19:31:44.480Z,18.00
2022-09-10T19:34:49.614Z,18.00
2022-09-10T19:37:53.926Z,17.80
2022-09-10T19:41:03.724Z,17.80
2022-09-10T19:44:07.998Z,17.80
2022-09-10T19:47:11.038Z,17.80
2022-09-10T19:50:13.985Z,17.70
2022-09-10T19:53:18.369Z,17.60
2022-09-10T19:56:23.401Z,17.60
2022-09-10T19:59:26.648Z,17.60
2022-09-10T20:02:29.695Z,17.60
2022-09-10T20:05:34.005Z,17.60
2022-09-10T20:08:39.225Z,17.60
2022-09-10T20:11:42.227Z,17.60
2022-09-10T20:14:45.234Z,17.50
2022-09-10T20:17:50.362Z,17.40
2022-09-10T20:20:53.293Z,17.40
2022-09-10T20:23:58.070Z,17.40
2022-09-10T20:27:01.079Z,17.40
2022-09-10T20:30:04.371Z,17.40
2022-09-10T20:33:07.750Z,17.40
2022-09-10T20:36:13.326Z,17.40
2022-09-10T20:39:19.526Z,17.30
2022-09-10T20:42:24.063Z,17.30
2022-09-10T20:45:27.464Z,17.30
2022-09-10T20:48:31.787Z,17.30
2022-09-10T20:51:36.563Z,17.20
2022-09-10T20:54:40.809Z,17.20
2022-09-10T20:57:43.757Z,17.20
2022-09-10T21:00:46.866Z,17.20
2022-09-10T21:03:51.975Z,17.10
2022-09-10T21:06:55.295Z,17.10
2022-09-10T21:09:59.563Z,17.00
2022-09-10T21:13:03.489Z,16.90
2022-09-10T21:16:11.419Z,16.90
2022-09-10T21:19:16.500Z,16.90
2022-09-10T21:22:20.184Z,16.80
2022-09-10T21:25:26.013Z,16.90
2022-09-10T21:28:29.315Z,16.80
2022-09-10T21:31:32.454Z,16.90
2022-09-10T21:34:35.710Z,16.90
2022-09-10T21:37:40.300Z,16.90
2022-09-10T21:40:44.636Z,16.90
2022-09-10T21:43:48.541Z,16.90
2022-09-10T21:46:52.792Z,16.90
2022-09-10T21:49:55.769Z,17.00
2022-09-10T21:52:58.692Z,17.00
2022-09-10T21:56:04.747Z,17.00
2022-09-10T21:59:07.790Z,16.90
2022-09-10T22:02:11.320Z,16.90
2022-09-10T22:05:14.426Z,17.00
2022-09-10T22:08:17.367Z,17.00
2022-09-10T22:11:24.419Z,16.90
2022-09-10T22:14:27.519Z,16.90
2022-09-10T22:17:30.462Z,16.90
2022-09-10T22:20:34.501Z,16.80
2022-09-10T22:23:39.247Z,16.80
2022-09-10T22:26:44.934Z,16.80
2022-09-10T22:29:47.917Z,16.80
2022-09-10T22:32:50.845Z,16.80
2022-09-10T22:35:55.314Z,16.80
2022-09-10T22:39:00.222Z,16.70
2022-09-10T22:42:05.383Z,16.70
2022-09-10T22:45:09.268Z,16.70
2022-09-10T22:48:12.338Z,16.60
2022-09-10T22:51:17.751Z,16.60
2022-09-10T22:54:20.712Z,16.60
2022-09-10T22:57:25.029Z,16.50
2022-09-10T23:00:27.983Z,16.60
2022-09-10T23:03:30.979Z,16.60
2022-09-10T23:06:35.626Z,16.60
2022-09-10T23:09:38.762Z,16.50
2022-09-10T23:12:43.039Z,16.50
2022-09-10T23:15:46.067Z,16.50
2022-09-10T23:18:50.697Z,16.50
2022-09-10T23:21:55.214Z,16.50
2022-09-10T23:24:58.217Z,16.40
2022-09-10T23:28:07.120Z,16.40
2022-09-10T23:31:13.906Z,16.40
2022-09-10T23:34:19.556Z,16.30
2022-09-10T23:37:22.466Z,16.30
2022-09-10T23:40:31.040Z,16.40
2022-09-10T23:43:38.079Z,16.30
2022-09-10T23:46:41.142Z,16.30
2022-09-10T23:49:44.337Z,16.30
2022-09-10T23:52:47.318Z,16.30
2022-09-10T23:55:50.309Z,16.20
2022-09-10T23:58:55.038Z,16.20
